OPMT

Details ICAO OPMT (MUX)
Name MULTAN INTL
Region Pakistan
Timezone Asia/Karachi (UTC+5.0)
Plans Departing 32
Arriving 26
Stats Elevation 403 ft / 123 m (AMSL)
Location 30.203279° 71.419111°
Runways 1
Magnetic Variation 1.942° E
Sunrise 2018-05-25 00:17:04 UTC / 2018-05-25 05:17:04 Local
Sunset 2018-05-25 14:08:17 UTC / 2018-05-25 19:08:17 Local
Advertisement - Login to hide

Runways

ID Width Length Bearing (true) Bearing (mag) Surface Threshold Offset Overrun Length
18 98 ft / 30 m 9,076 ft / 2,766 m 183.32° 181.38° Asphalt 0 ft / 0 m 899 ft / 274 m
36 98 ft / 30 m 9,076 ft / 2,766 m 3.32° 1.38° Asphalt 0 ft / 0 m 1,050 ft / 320 m

Map

Weather


0- 5 10 15 20 25 30 35+ Temperature / ° C

Clouds and Precipitation
Forecast for 2018-05-25 00:00 UTC. Updated 2 hours ago

Ground ~20,000 ft ~40,000 ft Winds

METAR

OPMT 250050Z 00000KT 1500 HZ NSC 28/12 Q1001 TEMPO 2000

TAF

Not found

Frequencies

Ground 121.80 MHz TWR
Tower 122.60 MHz TWR
Approach 122.60 MHz TWR
Tower 119.10 MHz TWR
Approach 119.10 MHz TWR
Warning: Do not use this data for real-world aviation or navigation. No guarantee of current accuracy is given.